KABI/ABI METAR and TAF weather

Enter ICAO airport designator
Station Type Date Time Source
KABI METAR 2021/05/11 00:52 UTC NOAA

KABI 110052Z 08005KT 8SM OVC011 13/11 A3001 RMK AO2 SLP151 T01330106


Station Type Date Time Source
KABI Decoded METAR 2021/05/11 00:52 UTC NOAA

ABILENE REGIONAL AIRPORT, TX, United States (KABI) 32-25N 099-41W 548M
May 10, 2021 - 08:52 PM EDT / 2021.05.11 0052 UTC
Wind: from the E (080 degrees) at 6 MPH (5 KT):0
Visibility: 8 mile(s):0
Sky conditions: overcast
Temperature: 55.9 F (13.3 C)
Dew Point: 51.1 F (10.6 C)
Relative Humidity: 83%
Pressure (altimeter): 30.01 in. Hg (1016 hPa)
ob: KABI 110052Z 08005KT 8SM OVC011 13/11 A3001 RMK AO2 SLP151 T01330106
cycle: 1

Station Type Date Time Source
KABI TAF 2021/05/10 18:42 UTC NOAA

TAF KABI 101733Z 1018/1118 03011KT P6SM OVC008
FM102000 02010KT P6SM OVC012
FM110400 05010KT P6SM OVC007
FM110700 08006KT 5SM -SHRA BR OVC004
FM110900 06007KT 4SM -SHRA BR VCTS OVC003CB

Example: see airport list